sensor_id;sensor_type;location;lat;lon;timestamp;P1;durP1;ratioP1;P2;durP2;ratioP2
3999;SDS011;2014;53.604;10.112;2023-02-03T00:01:35;1.50;;;1.40;;
3999;SDS011;2014;53.604;10.112;2023-02-03T00:04:02;1.20;;;1.20;;
3999;SDS011;2014;53.604;10.112;2023-02-03T00:06:30;1.13;;;1.13;;
3999;SDS011;2014;53.604;10.112;2023-02-03T00:08:57;1.10;;;1.10;;
3999;SDS011;2014;53.604;10.112;2023-02-03T00:11:27;1.90;;;1.80;;
3999;SDS011;2014;53.604;10.112;2023-02-03T00:13:55;1.30;;;1.30;;
3999;SDS011;2014;53.604;10.112;2023-02-03T00:16:22;3.07;;;2.00;;
3999;SDS011;2014;53.604;10.112;2023-02-03T00:18:49;2.40;;;1.83;;
3999;SDS011;2014;53.604;10.112;2023-02-03T00:21:17;1.60;;;1.60;;
3999;SDS011;2014;53.604;10.112;2023-02-03T00:23:44;3.00;;;1.73;;
3999;SDS011;2014;53.604;10.112;2023-02-03T00:26:15;7.30;;;1.87;;
3999;SDS011;2014;53.604;10.112;2023-02-03T00:28:44;2.60;;;2.50;;
3999;SDS011;2014;53.604;10.112;2023-02-03T00:31:14;2.83;;;2.73;;
3999;SDS011;2014;53.604;10.112;2023-02-03T00:33:42;3.10;;;3.00;;
3999;SDS011;2014;53.604;10.112;2023-02-03T00:36:10;3.10;;;2.50;;
3999;SDS011;2014;53.604;10.112;2023-02-03T00:38:37;2.67;;;2.57;;
3999;SDS011;2014;53.604;10.112;2023-02-03T00:41:05;3.17;;;2.93;;
3999;SDS011;2014;53.604;10.112;2023-02-03T00:43:32;2.63;;;2.53;;
3999;SDS011;2014;53.604;10.112;2023-02-03T00:46:01;3.63;;;3.43;;
3999;SDS011;2014;53.604;10.112;2023-02-03T00:48:28;3.97;;;3.67;;
3999;SDS011;2014;53.604;10.112;2023-02-03T00:50:56;3.80;;;3.50;;
3999;SDS011;2014;53.604;10.112;2023-02-03T00:53:23;4.00;;;3.80;;
3999;SDS011;2014;53.604;10.112;2023-02-03T00:55:50;3.43;;;3.23;;
3999;SDS011;2014;53.604;10.112;2023-02-03T00:58:18;4.03;;;3.80;;
3999;SDS011;2014;53.604;10.112;2023-02-03T01:00:45;5.40;;;3.60;;
3999;SDS011;2014;53.604;10.112;2023-02-03T01:03:15;4.10;;;4.00;;
3999;SDS011;2014;53.604;10.112;2023-02-03T01:05:42;5.00;;;4.67;;
3999;SDS011;2014;53.604;10.112;2023-02-03T01:08:09;5.00;;;4.53;;
3999;SDS011;2014;53.604;10.112;2023-02-03T01:10:37;4.47;;;4.27;;
3999;SDS011;2014;53.604;10.112;2023-02-03T01:13:04;5.57;;;5.17;;
3999;SDS011;2014;53.604;10.112;2023-02-03T01:15:31;8.43;;;4.23;;
3999;SDS011;2014;53.604;10.112;2023-02-03T01:17:59;9.17;;;4.30;;
3999;SDS011;2014;53.604;10.112;2023-02-03T01:20:27;6.10;;;5.33;;
3999;SDS011;2014;53.604;10.112;2023-02-03T01:22:55;5.60;;;5.30;;
3999;SDS011;2014;53.604;10.112;2023-02-03T01:25:22;12.33;;;5.30;;
3999;SDS011;2014;53.604;10.112;2023-02-03T01:27:50;6.33;;;5.40;;
3999;SDS011;2014;53.604;10.112;2023-02-03T01:30:17;7.97;;;5.93;;
3999;SDS011;2014;53.604;10.112;2023-02-03T01:32:45;8.73;;;5.77;;
3999;SDS011;2014;53.604;10.112;2023-02-03T01:35:12;10.97;;;5.90;;
3999;SDS011;2014;53.604;10.112;2023-02-03T01:37:41;11.60;;;5.60;;
3999;SDS011;2014;53.604;10.112;2023-02-03T01:40:08;8.50;;;5.63;;
3999;SDS011;2014;53.604;10.112;2023-02-03T01:42:36;9.90;;;5.80;;
3999;SDS011;2014;53.604;10.112;2023-02-03T01:45:04;10.87;;;5.33;;
3999;SDS011;2014;53.604;10.112;2023-02-03T01:47:32;6.30;;;5.20;;
3999;SDS011;2014;53.604;10.112;2023-02-03T01:50:02;8.60;;;6.30;;
3999;SDS011;2014;53.604;10.112;2023-02-03T01:52:32;4.60;;;4.30;;
3999;SDS011;2014;53.604;10.112;2023-02-03T01:55:02;10.73;;;5.93;;
3999;SDS011;2014;53.604;10.112;2023-02-03T01:57:31;7.07;;;5.27;;
3999;SDS011;2014;53.604;10.112;2023-02-03T02:00:00;10.30;;;5.80;;
3999;SDS011;2014;53.604;10.112;2023-02-03T02:02:28;6.50;;;5.30;;
3999;SDS011;2014;53.604;10.112;2023-02-03T02:04:59;6.80;;;5.27;;
3999;SDS011;2014;53.604;10.112;2023-02-03T02:07:29;13.23;;;6.20;;
3999;SDS011;2014;53.604;10.112;2023-02-03T02:09:58;13.07;;;4.70;;
3999;SDS011;2014;53.604;10.112;2023-02-03T02:12:27;12.70;;;6.23;;
3999;SDS011;2014;53.604;10.112;2023-02-03T02:14:54;7.63;;;5.17;;
3999;SDS011;2014;53.604;10.112;2023-02-03T02:17:29;5.40;;;4.90;;
3999;SDS011;2014;53.604;10.112;2023-02-03T02:22:43;5.63;;;5.00;;
3999;SDS011;2014;53.604;10.112;2023-02-03T02:25:21;21.23;;;4.97;;
3999;SDS011;2014;53.604;10.112;2023-02-03T02:28:14;4.53;;;4.13;;
3999;SDS011;2014;53.604;10.112;2023-02-03T02:33:32;4.43;;;3.77;;
3999;SDS011;2014;53.604;10.112;2023-02-03T02:36:05;4.50;;;4.30;;
3999;SDS011;2014;53.604;10.112;2023-02-03T02:38:39;6.10;;;5.60;;
3999;SDS011;2014;53.604;10.112;2023-02-03T02:41:09;7.03;;;4.70;;
3999;SDS011;2014;53.604;10.112;2023-02-03T02:43:39;5.30;;;4.47;;
3999;SDS011;2014;53.604;10.112;2023-02-03T02:46:09;10.00;;;6.00;;
3999;SDS011;2014;53.604;10.112;2023-02-03T02:48:41;9.90;;;4.50;;
3999;SDS011;2014;53.604;10.112;2023-02-03T02:51:10;5.77;;;5.47;;
3999;SDS011;2014;53.604;10.112;2023-02-03T02:53:39;7.17;;;4.50;;
3999;SDS011;2014;53.604;10.112;2023-02-03T02:56:09;4.77;;;4.33;;
3999;SDS011;2014;53.604;10.112;2023-02-03T02:58:37;5.40;;;4.80;;
3999;SDS011;2014;53.604;10.112;2023-02-03T03:01:06;5.67;;;4.87;;
3999;SDS011;2014;53.604;10.112;2023-02-03T03:03:35;11.57;;;4.37;;
3999;SDS011;2014;53.604;10.112;2023-02-03T03:06:06;8.90;;;4.87;;
3999;SDS011;2014;53.604;10.112;2023-02-03T03:08:35;12.40;;;4.47;;
3999;SDS011;2014;53.604;10.112;2023-02-03T03:11:04;7.23;;;4.70;;
3999;SDS011;2014;53.604;10.112;2023-02-03T03:13:34;5.30;;;4.80;;
3999;SDS011;2014;53.604;10.112;2023-02-03T03:16:04;3.90;;;3.53;;
3999;SDS011;2014;53.604;10.112;2023-02-03T03:18:33;5.90;;;3.37;;
3999;SDS011;2014;53.604;10.112;2023-02-03T03:21:02;3.00;;;2.80;;
3999;SDS011;2014;53.604;10.112;2023-02-03T03:23:33;3.80;;;3.50;;
3999;SDS011;2014;53.604;10.112;2023-02-03T03:26:15;19.27;;;4.50;;
3999;SDS011;2014;53.604;10.112;2023-02-03T03:28:46;10.10;;;3.70;;
3999;SDS011;2014;53.604;10.112;2023-02-03T03:31:15;3.10;;;2.90;;
3999;SDS011;2014;53.604;10.112;2023-02-03T03:33:42;10.10;;;4.47;;
3999;SDS011;2014;53.604;10.112;2023-02-03T03:36:11;10.90;;;5.60;;
3999;SDS011;2014;53.604;10.112;2023-02-03T03:38:43;4.97;;;3.63;;
3999;SDS011;2014;53.604;10.112;2023-02-03T03:41:14;3.63;;;2.67;;
3999;SDS011;2014;53.604;10.112;2023-02-03T03:43:42;6.03;;;4.17;;
3999;SDS011;2014;53.604;10.112;2023-02-03T03:46:12;5.80;;;2.70;;
3999;SDS011;2014;53.604;10.112;2023-02-03T03:48:40;3.37;;;3.07;;
3999;SDS011;2014;53.604;10.112;2023-02-03T03:51:12;9.30;;;2.97;;
3999;SDS011;2014;53.604;10.112;2023-02-03T03:53:43;7.60;;;2.47;;
3999;SDS011;2014;53.604;10.112;2023-02-03T03:56:13;9.40;;;2.40;;
3999;SDS011;2014;53.604;10.112;2023-02-03T03:58:42;10.77;;;2.33;;
3999;SDS011;2014;53.604;10.112;2023-02-03T04:01:10;9.17;;;2.13;;
3999;SDS011;2014;53.604;10.112;2023-02-03T04:03:40;5.40;;;2.30;;
3999;SDS011;2014;53.604;10.112;2023-02-03T04:06:10;4.00;;;2.20;;
3999;SDS011;2014;53.604;10.112;2023-02-03T04:08:38;2.93;;;2.37;;
3999;SDS011;2014;53.604;10.112;2023-02-03T04:11:07;10.90;;;2.10;;
3999;SDS011;2014;53.604;10.112;2023-02-03T04:13:34;3.53;;;2.80;;
3999;SDS011;2014;53.604;10.112;2023-02-03T04:16:02;11.60;;;2.40;;
3999;SDS011;2014;53.604;10.112;2023-02-03T04:18:29;7.60;;;2.70;;
3999;SDS011;2014;53.604;10.112;2023-02-03T04:20:56;7.03;;;2.60;;
3999;SDS011;2014;53.604;10.112;2023-02-03T04:23:24;4.03;;;3.00;;
3999;SDS011;2014;53.604;10.112;2023-02-03T04:25:51;8.67;;;2.60;;
3999;SDS011;2014;53.604;10.112;2023-02-03T04:28:20;3.93;;;1.80;;
3999;SDS011;2014;53.604;10.112;2023-02-03T04:30:47;7.33;;;2.20;;
3999;SDS011;2014;53.604;10.112;2023-02-03T04:33:14;3.27;;;2.87;;
3999;SDS011;2014;53.604;10.112;2023-02-03T04:35:42;7.07;;;2.90;;
3999;SDS011;2014;53.604;10.112;2023-02-03T04:38:09;2.10;;;2.00;;
3999;SDS011;2014;53.604;10.112;2023-02-03T04:40:36;3.53;;;1.87;;
3999;SDS011;2014;53.604;10.112;2023-02-03T04:43:04;7.53;;;2.57;;
3999;SDS011;2014;53.604;10.112;2023-02-03T04:45:34;3.50;;;2.70;;
3999;SDS011;2014;53.604;10.112;2023-02-03T04:48:01;2.80;;;2.50;;
3999;SDS011;2014;53.604;10.112;2023-02-03T04:50:29;8.70;;;2.50;;
3999;SDS011;2014;53.604;10.112;2023-02-03T04:52:56;4.00;;;2.20;;
3999;SDS011;2014;53.604;10.112;2023-02-03T04:55:24;2.63;;;2.43;;
3999;SDS011;2014;53.604;10.112;2023-02-03T04:57:53;8.30;;;3.10;;
3999;SDS011;2014;53.604;10.112;2023-02-03T05:00:21;2.90;;;2.60;;
3999;SDS011;2014;53.604;10.112;2023-02-03T05:02:49;3.30;;;2.93;;
3999;SDS011;2014;53.604;10.112;2023-02-03T05:05:17;2.43;;;2.33;;
3999;SDS011;2014;53.604;10.112;2023-02-03T05:07:44;7.67;;;3.70;;
3999;SDS011;2014;53.604;10.112;2023-02-03T05:10:11;5.53;;;2.33;;
3999;SDS011;2014;53.604;10.112;2023-02-03T05:12:39;5.70;;;2.90;;
3999;SDS011;2014;53.604;10.112;2023-02-03T05:15:07;5.17;;;3.40;;
3999;SDS011;2014;53.604;10.112;2023-02-03T05:17:34;3.27;;;2.70;;
3999;SDS011;2014;53.604;10.112;2023-02-03T05:20:05;2.43;;;2.33;;
3999;SDS011;2014;53.604;10.112;2023-02-03T05:22:33;3.67;;;2.67;;
3999;SDS011;2014;53.604;10.112;2023-02-03T05:25:00;3.40;;;3.13;;
3999;SDS011;2014;53.604;10.112;2023-02-03T05:27:28;4.80;;;4.17;;
3999;SDS011;2014;53.604;10.112;2023-02-03T05:29:56;5.97;;;2.03;;
3999;SDS011;2014;53.604;10.112;2023-02-03T05:32:23;3.60;;;3.30;;
3999;SDS011;2014;53.604;10.112;2023-02-03T05:34:51;11.03;;;4.03;;
3999;SDS011;2014;53.604;10.112;2023-02-03T05:37:19;3.37;;;2.90;;
3999;SDS011;2014;53.604;10.112;2023-02-03T05:39:47;4.13;;;3.83;;
3999;SDS011;2014;53.604;10.112;2023-02-03T05:42:15;8.73;;;2.60;;
3999;SDS011;2014;53.604;10.112;2023-02-03T05:44:41;4.57;;;4.20;;
3999;SDS011;2014;53.604;10.112;2023-02-03T05:47:08;2.80;;;2.60;;
3999;SDS011;2014;53.604;10.112;2023-02-03T05:49:36;7.13;;;3.20;;
3999;SDS011;2014;53.604;10.112;2023-02-03T05:52:03;3.80;;;2.93;;
3999;SDS011;2014;53.604;10.112;2023-02-03T05:54:32;2.50;;;2.40;;
3999;SDS011;2014;53.604;10.112;2023-02-03T05:56:59;3.93;;;2.20;;
3999;SDS011;2014;53.604;10.112;2023-02-03T05:59:27;2.33;;;2.23;;
3999;SDS011;2014;53.604;10.112;2023-02-03T06:01:54;3.03;;;2.33;;
3999;SDS011;2014;53.604;10.112;2023-02-03T06:04:21;3.57;;;2.93;;
3999;SDS011;2014;53.604;10.112;2023-02-03T06:06:49;7.20;;;3.70;;
3999;SDS011;2014;53.604;10.112;2023-02-03T06:09:16;3.23;;;2.93;;
3999;SDS011;2014;53.604;10.112;2023-02-03T06:11:45;2.27;;;2.10;;
3999;SDS011;2014;53.604;10.112;2023-02-03T06:14:12;2.43;;;2.27;;
3999;SDS011;2014;53.604;10.112;2023-02-03T06:16:39;3.63;;;2.20;;
3999;SDS011;2014;53.604;10.112;2023-02-03T06:19:07;5.27;;;2.33;;
3999;SDS011;2014;53.604;10.112;2023-02-03T06:21:34;3.20;;;2.40;;
3999;SDS011;2014;53.604;10.112;2023-02-03T06:24:01;2.97;;;2.03;;
3999;SDS011;2014;53.604;10.112;2023-02-03T06:26:29;2.20;;;2.00;;
3999;SDS011;2014;53.604;10.112;2023-02-03T06:28:58;2.13;;;2.00;;
3999;SDS011;2014;53.604;10.112;2023-02-03T06:31:25;6.57;;;2.20;;
3999;SDS011;2014;53.604;10.112;2023-02-03T06:33:52;2.90;;;1.77;;
3999;SDS011;2014;53.604;10.112;2023-02-03T06:36:21;2.00;;;1.83;;
3999;SDS011;2014;53.604;10.112;2023-02-03T06:38:48;1.97;;;1.20;;
3999;SDS011;2014;53.604;10.112;2023-02-03T06:41:16;2.03;;;1.93;;
3999;SDS011;2014;53.604;10.112;2023-02-03T06:43:43;1.70;;;1.60;;
3999;SDS011;2014;53.604;10.112;2023-02-03T06:46:12;5.10;;;2.07;;
3999;SDS011;2014;53.604;10.112;2023-02-03T06:48:39;4.33;;;2.10;;
3999;SDS011;2014;53.604;10.112;2023-02-03T06:51:06;6.43;;;1.60;;
3999;SDS011;2014;53.604;10.112;2023-02-03T06:53:34;4.97;;;2.03;;
3999;SDS011;2014;53.604;10.112;2023-02-03T06:56:01;5.30;;;1.57;;
3999;SDS011;2014;53.604;10.112;2023-02-03T06:58:29;8.80;;;2.80;;
3999;SDS011;2014;53.604;10.112;2023-02-03T07:00:56;10.80;;;2.30;;
3999;SDS011;2014;53.604;10.112;2023-02-03T07:03:25;4.60;;;2.50;;
3999;SDS011;2014;53.604;10.112;2023-02-03T07:05:52;5.30;;;2.23;;
3999;SDS011;2014;53.604;10.112;2023-02-03T07:08:19;7.40;;;2.47;;
3999;SDS011;2014;53.604;10.112;2023-02-03T07:10:47;5.17;;;2.37;;
3999;SDS011;2014;53.604;10.112;2023-02-03T07:13:14;3.17;;;1.70;;
3999;SDS011;2014;53.604;10.112;2023-02-03T07:15:41;2.90;;;2.03;;
3999;SDS011;2014;53.604;10.112;2023-02-03T07:18:09;10.23;;;3.30;;
3999;SDS011;2014;53.604;10.112;2023-02-03T07:20:37;7.13;;;1.87;;
3999;SDS011;2014;53.604;10.112;2023-02-03T07:23:05;8.63;;;2.07;;
3999;SDS011;2014;53.604;10.112;2023-02-03T07:25:32;6.70;;;2.40;;
3999;SDS011;2014;53.604;10.112;2023-02-03T07:28:00;5.50;;;2.90;;
3999;SDS011;2014;53.604;10.112;2023-02-03T07:30:27;5.07;;;1.90;;
3999;SDS011;2014;53.604;10.112;2023-02-03T07:32:54;3.10;;;1.60;;
3999;SDS011;2014;53.604;10.112;2023-02-03T07:35:22;7.97;;;1.67;;
3999;SDS011;2014;53.604;10.112;2023-02-03T07:37:51;6.20;;;1.90;;
3999;SDS011;2014;53.604;10.112;2023-02-03T07:40:19;4.83;;;2.10;;
3999;SDS011;2014;53.604;10.112;2023-02-03T07:42:47;12.50;;;2.00;;
3999;SDS011;2014;53.604;10.112;2023-02-03T07:45:16;12.37;;;2.27;;
3999;SDS011;2014;53.604;10.112;2023-02-03T07:47:44;9.10;;;2.00;;
3999;SDS011;2014;53.604;10.112;2023-02-03T07:50:11;4.50;;;1.60;;
3999;SDS011;2014;53.604;10.112;2023-02-03T07:52:38;14.50;;;2.50;;
3999;SDS011;2014;53.604;10.112;2023-02-03T07:55:07;8.77;;;1.93;;
3999;SDS011;2014;53.604;10.112;2023-02-03T07:57:35;7.23;;;2.17;;
3999;SDS011;2014;53.604;10.112;2023-02-03T08:00:07;6.47;;;2.33;;
3999;SDS011;2014;53.604;10.112;2023-02-03T08:02:35;7.50;;;1.60;;
3999;SDS011;2014;53.604;10.112;2023-02-03T08:05:02;5.70;;;1.67;;
3999;SDS011;2014;53.604;10.112;2023-02-03T08:07:29;4.97;;;1.43;;
3999;SDS011;2014;53.604;10.112;2023-02-03T08:09:57;5.27;;;1.60;;
3999;SDS011;2014;53.604;10.112;2023-02-03T08:12:26;7.83;;;2.03;;
3999;SDS011;2014;53.604;10.112;2023-02-03T08:14:53;5.70;;;1.60;;
3999;SDS011;2014;53.604;10.112;2023-02-03T08:17:20;4.57;;;1.40;;
3999;SDS011;2014;53.604;10.112;2023-02-03T08:19:48;7.30;;;1.27;;
3999;SDS011;2014;53.604;10.112;2023-02-03T08:22:15;3.13;;;1.77;;
3999;SDS011;2014;53.604;10.112;2023-02-03T08:24:45;17.97;;;2.97;;
3999;SDS011;2014;53.604;10.112;2023-02-03T08:27:13;5.07;;;1.23;;
3999;SDS011;2014;53.604;10.112;2023-02-03T08:29:42;5.20;;;1.53;;
3999;SDS011;2014;53.604;10.112;2023-02-03T08:32:10;6.10;;;1.97;;
3999;SDS011;2014;53.604;10.112;2023-02-03T08:34:38;16.57;;;2.57;;
3999;SDS011;2014;53.604;10.112;2023-02-03T08:37:05;16.37;;;2.17;;
3999;SDS011;2014;53.604;10.112;2023-02-03T08:39:33;16.97;;;2.73;;
3999;SDS011;2014;53.604;10.112;2023-02-03T08:42:00;13.40;;;2.67;;
3999;SDS011;2014;53.604;10.112;2023-02-03T08:44:28;16.90;;;3.10;;
3999;SDS011;2014;53.604;10.112;2023-02-03T08:46:57;11.57;;;2.60;;
3999;SDS011;2014;53.604;10.112;2023-02-03T08:49:25;9.30;;;3.20;;
3999;SDS011;2014;53.604;10.112;2023-02-03T08:51:54;14.37;;;4.00;;
3999;SDS011;2014;53.604;10.112;2023-02-03T08:54:21;12.13;;;2.47;;
3999;SDS011;2014;53.604;10.112;2023-02-03T08:56:49;24.80;;;3.50;;
3999;SDS011;2014;53.604;10.112;2023-02-03T08:59:16;23.20;;;4.10;;
3999;SDS011;2014;53.604;10.112;2023-02-03T09:01:44;18.43;;;2.70;;
3999;SDS011;2014;53.604;10.112;2023-02-03T09:04:14;31.77;;;4.50;;
3999;SDS011;2014;53.604;10.112;2023-02-03T09:06:43;31.97;;;5.40;;
3999;SDS011;2014;53.604;10.112;2023-02-03T09:09:11;20.63;;;3.30;;
3999;SDS011;2014;53.604;10.112;2023-02-03T09:11:39;25.83;;;3.90;;
3999;SDS011;2014;53.604;10.112;2023-02-03T09:14:07;22.40;;;4.20;;
3999;SDS011;2014;53.604;10.112;2023-02-03T09:16:34;29.27;;;3.40;;
3999;SDS011;2014;53.604;10.112;2023-02-03T09:19:02;28.30;;;5.30;;
3999;SDS011;2014;53.604;10.112;2023-02-03T09:21:31;28.73;;;4.43;;
3999;SDS011;2014;53.604;10.112;2023-02-03T09:23:59;40.13;;;4.40;;
3999;SDS011;2014;53.604;10.112;2023-02-03T09:26:26;18.73;;;3.43;;
3999;SDS011;2014;53.604;10.112;2023-02-03T09:28:54;43.83;;;5.60;;
3999;SDS011;2014;53.604;10.112;2023-02-03T09:31:21;20.23;;;3.97;;
3999;SDS011;2014;53.604;10.112;2023-02-03T09:33:49;18.77;;;3.50;;
3999;SDS011;2014;53.604;10.112;2023-02-03T09:36:16;34.27;;;5.10;;
3999;SDS011;2014;53.604;10.112;2023-02-03T09:38:45;22.20;;;4.43;;
3999;SDS011;2014;53.604;10.112;2023-02-03T09:41:14;30.17;;;3.73;;
3999;SDS011;2014;53.604;10.112;2023-02-03T09:43:47;29.43;;;5.10;;
3999;SDS011;2014;53.604;10.112;2023-02-03T09:46:17;27.00;;;5.50;;
3999;SDS011;2014;53.604;10.112;2023-02-03T09:48:46;32.77;;;5.17;;
3999;SDS011;2014;53.604;10.112;2023-02-03T09:51:17;32.03;;;4.97;;
3999;SDS011;2014;53.604;10.112;2023-02-03T09:53:53;25.77;;;4.47;;
3999;SDS011;2014;53.604;10.112;2023-02-03T09:56:28;41.87;;;5.07;;
3999;SDS011;2014;53.604;10.112;2023-02-03T09:59:02;25.50;;;5.20;;
3999;SDS011;2014;53.604;10.112;2023-02-03T10:01:37;28.20;;;5.77;;
3999;SDS011;2014;53.604;10.112;2023-02-03T10:04:10;20.30;;;4.40;;
3999;SDS011;2014;53.604;10.112;2023-02-03T10:06:48;30.83;;;5.57;;
3999;SDS011;2014;53.604;10.112;2023-02-03T10:09:21;43.97;;;6.00;;
3999;SDS011;2014;53.604;10.112;2023-02-03T10:11:58;32.53;;;5.20;;
3999;SDS011;2014;53.604;10.112;2023-02-03T10:14:38;40.20;;;5.87;;
3999;SDS011;2014;53.604;10.112;2023-02-03T10:17:18;70.57;;;8.20;;
3999;SDS011;2014;53.604;10.112;2023-02-03T10:19:52;38.43;;;6.10;;
3999;SDS011;2014;53.604;10.112;2023-02-03T10:22:26;39.63;;;5.77;;
3999;SDS011;2014;53.604;10.112;2023-02-03T10:25:03;43.73;;;6.60;;
3999;SDS011;2014;53.604;10.112;2023-02-03T10:27:36;25.23;;;6.00;;
3999;SDS011;2014;53.604;10.112;2023-02-03T10:30:09;31.00;;;5.23;;
3999;SDS011;2014;53.604;10.112;2023-02-03T10:32:48;25.33;;;6.50;;
3999;SDS011;2014;53.604;10.112;2023-02-03T10:35:19;37.60;;;4.90;;
3999;SDS011;2014;53.604;10.112;2023-02-03T10:37:50;39.13;;;6.30;;
3999;SDS011;2014;53.604;10.112;2023-02-03T10:40:24;45.73;;;5.73;;
3999;SDS011;2014;53.604;10.112;2023-02-03T10:42:53;38.40;;;6.50;;
3999;SDS011;2014;53.604;10.112;2023-02-03T10:45:39;61.97;;;7.07;;
3999;SDS011;2014;53.604;10.112;2023-02-03T10:48:11;32.20;;;5.00;;
3999;SDS011;2014;53.604;10.112;2023-02-03T10:50:45;31.03;;;6.97;;
3999;SDS011;2014;53.604;10.112;2023-02-03T10:53:22;29.43;;;6.00;;
3999;SDS011;2014;53.604;10.112;2023-02-03T10:56:02;30.70;;;4.87;;
3999;SDS011;2014;53.604;10.112;2023-02-03T10:58:35;24.73;;;5.60;;
3999;SDS011;2014;53.604;10.112;2023-02-03T11:01:08;44.80;;;6.23;;
3999;SDS011;2014;53.604;10.112;2023-02-03T11:03:40;19.13;;;4.70;;
3999;SDS011;2014;53.604;10.112;2023-02-03T11:06:11;29.97;;;5.20;;
3999;SDS011;2014;53.604;10.112;2023-02-03T11:08:41;18.03;;;4.53;;
3999;SDS011;2014;53.604;10.112;2023-02-03T11:11:14;29.03;;;5.37;;
3999;SDS011;2014;53.604;10.112;2023-02-03T11:13:49;42.50;;;7.60;;
3999;SDS011;2014;53.604;10.112;2023-02-03T11:16:19;38.83;;;6.63;;
3999;SDS011;2014;53.604;10.112;2023-02-03T11:18:53;35.97;;;5.83;;
3999;SDS011;2014;53.604;10.112;2023-02-03T11:21:24;26.03;;;5.53;;
3999;SDS011;2014;53.604;10.112;2023-02-03T11:23:56;35.53;;;6.67;;
3999;SDS011;2014;53.604;10.112;2023-02-03T11:26:32;34.53;;;6.27;;
3999;SDS011;2014;53.604;10.112;2023-02-03T11:29:04;44.20;;;5.30;;
3999;SDS011;2014;53.604;10.112;2023-02-03T11:31:34;31.10;;;5.30;;
3999;SDS011;2014;53.604;10.112;2023-02-03T11:34:05;46.23;;;6.50;;
3999;SDS011;2014;53.604;10.112;2023-02-03T11:36:38;23.60;;;5.10;;
3999;SDS011;2014;53.604;10.112;2023-02-03T11:39:22;32.87;;;4.87;;
3999;SDS011;2014;53.604;10.112;2023-02-03T11:41:57;31.30;;;4.97;;
3999;SDS011;2014;53.604;10.112;2023-02-03T11:44:28;24.77;;;5.77;;
3999;SDS011;2014;53.604;10.112;2023-02-03T11:46:59;25.60;;;4.57;;
3999;SDS011;2014;53.604;10.112;2023-02-03T11:52:31;26.97;;;4.07;;
3999;SDS011;2014;53.604;10.112;2023-02-03T11:55:06;26.37;;;4.30;;
3999;SDS011;2014;53.604;10.112;2023-02-03T11:57:43;24.37;;;4.87;;
3999;SDS011;2014;53.604;10.112;2023-02-03T12:00:27;29.57;;;4.70;;
3999;SDS011;2014;53.604;10.112;2023-02-03T12:05:58;25.83;;;5.63;;
3999;SDS011;2014;53.604;10.112;2023-02-03T12:08:43;25.10;;;4.67;;
3999;SDS011;2014;53.604;10.112;2023-02-03T12:11:23;33.20;;;4.90;;
3999;SDS011;2014;53.604;10.112;2023-02-03T12:14:09;36.77;;;5.53;;
3999;SDS011;2014;53.604;10.112;2023-02-03T12:16:56;27.60;;;4.03;;
3999;SDS011;2014;53.604;10.112;2023-02-03T12:19:40;31.70;;;5.37;;
3999;SDS011;2014;53.604;10.112;2023-02-03T12:22:15;26.73;;;5.37;;
3999;SDS011;2014;53.604;10.112;2023-02-03T12:24:50;28.60;;;5.50;;
3999;SDS011;2014;53.604;10.112;2023-02-03T12:27:29;26.43;;;5.63;;
3999;SDS011;2014;53.604;10.112;2023-02-03T12:30:08;29.37;;;4.43;;
3999;SDS011;2014;53.604;10.112;2023-02-03T12:32:43;16.63;;;4.43;;
3999;SDS011;2014;53.604;10.112;2023-02-03T12:35:17;33.37;;;5.37;;
3999;SDS011;2014;53.604;10.112;2023-02-03T12:37:53;19.60;;;4.13;;
3999;SDS011;2014;53.604;10.112;2023-02-03T12:40:34;22.10;;;4.70;;
3999;SDS011;2014;53.604;10.112;2023-02-03T12:43:12;21.87;;;4.80;;
3999;SDS011;2014;53.604;10.112;2023-02-03T12:45:50;29.97;;;4.60;;
3999;SDS011;2014;53.604;10.112;2023-02-03T12:48:23;30.47;;;6.43;;
3999;SDS011;2014;53.604;10.112;2023-02-03T12:50:57;31.97;;;5.13;;
3999;SDS011;2014;53.604;10.112;2023-02-03T12:53:31;13.53;;;3.70;;
3999;SDS011;2014;53.604;10.112;2023-02-03T12:56:06;16.63;;;2.93;;
3999;SDS011;2014;53.604;10.112;2023-02-03T12:58:43;25.10;;;3.70;;
3999;SDS011;2014;53.604;10.112;2023-02-03T13:01:24;26.77;;;5.17;;
3999;SDS011;2014;53.604;10.112;2023-02-03T13:03:59;29.20;;;4.30;;
3999;SDS011;2014;53.604;10.112;2023-02-03T13:06:35;24.30;;;3.40;;
3999;SDS011;2014;53.604;10.112;2023-02-03T13:09:16;18.03;;;4.93;;
3999;SDS011;2014;53.604;10.112;2023-02-03T13:11:51;30.63;;;4.00;;
3999;SDS011;2014;53.604;10.112;2023-02-03T13:14:27;39.70;;;4.57;;
3999;SDS011;2014;53.604;10.112;2023-02-03T13:17:02;27.23;;;5.07;;
3999;SDS011;2014;53.604;10.112;2023-02-03T13:19:39;19.63;;;4.20;;
3999;SDS011;2014;53.604;10.112;2023-02-03T13:22:13;17.40;;;2.93;;
3999;SDS011;2014;53.604;10.112;2023-02-03T13:24:51;21.47;;;3.83;;
3999;SDS011;2014;53.604;10.112;2023-02-03T13:27:28;27.93;;;3.70;;
3999;SDS011;2014;53.604;10.112;2023-02-03T13:30:12;22.53;;;3.50;;
3999;SDS011;2014;53.604;10.112;2023-02-03T13:32:48;18.23;;;3.53;;
3999;SDS011;2014;53.604;10.112;2023-02-03T13:35:24;25.90;;;3.63;;
3999;SDS011;2014;53.604;10.112;2023-02-03T13:38:05;20.87;;;3.10;;
3999;SDS011;2014;53.604;10.112;2023-02-03T13:40:40;33.63;;;6.53;;
3999;SDS011;2014;53.604;10.112;2023-02-03T13:43:13;14.20;;;2.97;;
3999;SDS011;2014;53.604;10.112;2023-02-03T13:45:44;16.80;;;3.60;;
3999;SDS011;2014;53.604;10.112;2023-02-03T13:48:16;16.93;;;5.20;;
3999;SDS011;2014;53.604;10.112;2023-02-03T13:51:00;16.20;;;4.60;;
3999;SDS011;2014;53.604;10.112;2023-02-03T13:53:35;40.80;;;4.83;;
3999;SDS011;2014;53.604;10.112;2023-02-03T13:56:15;34.30;;;5.37;;
3999;SDS011;2014;53.604;10.112;2023-02-03T13:59:02;28.43;;;4.90;;
3999;SDS011;2014;53.604;10.112;2023-02-03T14:01:37;32.30;;;5.20;;
3999;SDS011;2014;53.604;10.112;2023-02-03T14:04:49;21.07;;;4.13;;
3999;SDS011;2014;53.604;10.112;2023-02-03T14:07:04;23.60;;;4.13;;
3999;SDS011;2014;53.604;10.112;2023-02-03T14:10:13;21.40;;;4.73;;
3999;SDS011;2014;53.604;10.112;2023-02-03T14:12:58;13.93;;;3.10;;
3999;SDS011;2014;53.604;10.112;2023-02-03T14:16:03;26.17;;;5.33;;
3999;SDS011;2014;53.604;10.112;2023-02-03T14:18:44;24.23;;;4.00;;
3999;SDS011;2014;53.604;10.112;2023-02-03T14:21:18;28.33;;;4.80;;
3999;SDS011;2014;53.604;10.112;2023-02-03T14:23:55;35.73;;;4.23;;
3999;SDS011;2014;53.604;10.112;2023-02-03T14:26:34;12.00;;;3.93;;
3999;SDS011;2014;53.604;10.112;2023-02-03T14:29:10;25.43;;;4.57;;
3999;SDS011;2014;53.604;10.112;2023-02-03T14:31:57;20.33;;;3.10;;
3999;SDS011;2014;53.604;10.112;2023-02-03T14:34:34;33.73;;;6.13;;
3999;SDS011;2014;53.604;10.112;2023-02-03T14:46:00;25.13;;;5.20;;
3999;SDS011;2014;53.604;10.112;2023-02-03T14:48:40;25.00;;;4.90;;
3999;SDS011;2014;53.604;10.112;2023-02-03T14:51:24;38.93;;;4.67;;
3999;SDS011;2014;53.604;10.112;2023-02-03T14:54:02;26.10;;;5.13;;
3999;SDS011;2014;53.604;10.112;2023-02-03T14:56:38;23.73;;;5.20;;
3999;SDS011;2014;53.604;10.112;2023-02-03T14:59:24;36.10;;;5.37;;
3999;SDS011;2014;53.604;10.112;2023-02-03T15:02:10;30.00;;;4.47;;
3999;SDS011;2014;53.604;10.112;2023-02-03T15:04:45;32.37;;;5.53;;
3999;SDS011;2014;53.604;10.112;2023-02-03T15:10:14;26.53;;;4.73;;
3999;SDS011;2014;53.604;10.112;2023-02-03T15:12:52;21.53;;;3.50;;
3999;SDS011;2014;53.604;10.112;2023-02-03T15:15:25;41.30;;;6.40;;
3999;SDS011;2014;53.604;10.112;2023-02-03T15:17:59;22.07;;;4.83;;
3999;SDS011;2014;53.604;10.112;2023-02-03T15:20:51;25.53;;;4.33;;
3999;SDS011;2014;53.604;10.112;2023-02-03T15:23:28;28.00;;;4.23;;
3999;SDS011;2014;53.604;10.112;2023-02-03T15:26:01;17.80;;;4.53;;
3999;SDS011;2014;53.604;10.112;2023-02-03T15:28:34;28.97;;;5.20;;
3999;SDS011;2014;53.604;10.112;2023-02-03T15:31:07;24.83;;;4.60;;
3999;SDS011;2014;53.604;10.112;2023-02-03T15:33:45;33.53;;;4.17;;
3999;SDS011;2014;53.604;10.112;2023-02-03T15:36:18;34.87;;;6.30;;
3999;SDS011;2014;53.604;10.112;2023-02-03T15:38:50;20.90;;;4.40;;
3999;SDS011;2014;53.604;10.112;2023-02-03T15:41:23;29.33;;;4.53;;
3999;SDS011;2014;53.604;10.112;2023-02-03T15:43:59;40.10;;;7.00;;